CheckWX is a tool to help pilots better visualize weather data.  It is not intended as a substitute for an official pre-flight weather briefing.

00:27:45 UTC

33N METAR
Delaware Airpark
Dover/Cheswold, Delaware, USA
Current

13 mins ago

K33N 210015Z AUTO VRB05KT 10SM CLR 18/09 A2978 RMK A01
Observed
Apr-21 @ 00:15 UTC
Wind
  • Variable at 5 KTS
Visibility
10 SM
Flight Rules
VFR
Cloud Levels
  • Clear skies
Temperature
18°C / 64°F
Dewpoint
C / 48°F
Humidity
56%
Altimeter
29.78" Hg
Pressure
1008.42 hPa
Previous

33 mins ago

K33N 202355Z AUTO 18004KT 10SM CLR 19/09 A2978 RMK A01
Observed
Apr-20 @ 23:55 UTC
Wind
  • 180° at 4 KTS
Visibility
10 SM
Flight Rules
VFR
Cloud Levels
  • Clear skies
Temperature
19°C / 66°F
Dewpoint
C / 48°F
Humidity
52%
Altimeter
29.78" Hg
Pressure
1008.42 hPa
Previous

53 mins ago

K33N 202335Z AUTO VRB04KT 10SM CLR 19/09 A2977 RMK A01
Observed
Apr-20 @ 23:35 UTC
Wind
  • Variable at 4 KTS
Visibility
10 SM
Flight Rules
VFR
Cloud Levels
  • Clear skies
Temperature
19°C / 66°F
Dewpoint
C / 48°F
Humidity
52%
Altimeter
29.77" Hg
Pressure
1008.12 hPa